Time;durP1;ratioP1;P1;durP2;ratioP2;P2;SDS_P1;SDS_P2;PMS_P1;PMS_P2;Temp;Humidity;BMP_temperature;BMP_pressure;BME280_temperature;BME280_humidity;BME280_pressure;Samples;Min_cycle;Max_cycle;Signal;HPM_P1;HPM_P2
2022/01/26 00:00:20;;;;;;;;;;;;;;;-3.14;76.81;99724.95;1701030;82;21153;-48
2022/01/26 00:05:50;;;;;;;48.90;24.80;;;;;;;-3.11;76.91;99720.14;1704852;82;21042;-51
2022/01/26 00:08:13;;;;;;;53.13;27.70;;;;;;;-3.10;77.00;99720.16;1693880;82;21387;-51
2022/01/26 00:10:39;;;;;;;60.17;30.10;;;;;;;-3.09;77.05;99718.41;1698338;82;21058;-50
2022/01/26 00:13:05;;;;;;;53.47;27.17;;;;;;;-3.07;77.16;99711.41;1703689;82;22558;-50
2022/01/26 00:15:33;;;;;;;51.97;26.87;;;;;;;-3.04;77.18;99714.03;1697113;82;21137;-50
2022/01/26 00:17:59;;;;;;;58.10;28.33;;;;;;;-3.02;77.26;99715.36;1694985;82;21169;-48
2022/01/26 00:20:38;;;;;;;57.17;28.80;;;;;;;-3.02;77.23;99708.34;1695952;82;22062;-50
2022/01/26 00:23:22;;;;;;;59.60;27.13;;;;;;;-3.02;77.26;99714.05;1703648;82;21105;-47
2022/01/26 00:26:05;;;;;;;60.73;29.20;;;;;;;-3.01;77.36;99715.38;1696861;82;21279;-51
2022/01/26 00:38:41;;;;;;;62.60;29.47;;;;;;;-2.94;77.67;99695.22;1701617;82;21115;-48
2022/01/26 00:41:13;;;;;;;63.93;31.53;;;;;;;-2.94;77.82;99696.09;1704604;82;21035;-47
2022/01/26 00:43:48;;;;;;;59.10;28.47;;;;;;;-2.92;77.89;99698.31;1696490;82;21088;-48
2022/01/26 00:46:13;;;;;;;61.13;29.98;;;;;;;-2.90;77.90;99697.89;1701323;82;21550;-49
2022/01/26 00:48:41;;;;;;;62.47;32.13;;;;;;;-2.86;77.91;99686.91;1697755;82;21143;-47
2022/01/26 00:51:07;;;;;;;68.40;34.87;;;;;;;-2.87;77.86;99685.15;1694729;82;22250;-52
2022/01/26 00:53:45;;;;;;;65.30;32.03;;;;;;;-2.87;77.97;99686.03;1700826;82;21066;-50
2022/01/26 00:56:08;;;;;;;75.87;35.93;;;;;;;-2.86;77.95;99685.16;1700184;82;20922;-50
2022/01/26 00:58:35;;;;;;;65.77;32.20;;;;;;;-2.85;77.97;99684.72;1667727;83;21096;-51
2022/01/26 01:01:03;;;;;;;64.60;32.80;;;;;;;-2.83;78.04;99686.50;1701643;82;20911;-50
2022/01/26 01:03:31;;;;;;;65.17;31.10;;;;;;;-2.80;78.05;99679.91;1699813;82;21105;-48
2022/01/26 01:06:16;;;;;;;70.80;33.77;;;;;;;-2.77;78.05;99669.83;1697474;82;21559;-51
2022/01/26 01:08:40;;;;;;;73.13;32.97;;;;;;;-2.75;78.09;99669.41;1700647;82;21351;-51
2022/01/26 01:11:09;;;;;;;65.90;31.13;;;;;;;-2.74;78.11;99677.75;1699299;82;21113;-49
2022/01/26 01:13:39;;;;;;;67.07;34.67;;;;;;;-2.75;78.03;99669.41;1699460;82;21023;-50
2022/01/26 01:16:06;;;;;;;64.00;31.13;;;;;;;-2.75;78.03;99665.45;1702032;82;21558;-50
2022/01/26 01:23:55;;;;;;;71.47;33.47;;;;;;;-2.75;78.06;99664.13;1697523;82;20969;-52
2022/01/26 01:31:29;;;;;;;67.63;31.47;;;;;;;-2.70;78.17;99653.16;1695240;82;22569;-51
2022/01/26 01:33:46;;;;;;;69.30;32.40;;;;;;;-2.71;78.20;99650.08;1639430;85;21127;-48
2022/01/26 01:36:12;;;;;;;70.73;34.23;;;;;;;-2.70;78.25;99643.94;1646151;85;22290;-51
2022/01/26 01:38:41;;;;;;;74.17;34.10;;;;;;;-2.68;78.39;99648.34;1704395;81;22534;-50
2022/01/26 01:41:07;;;;;;;67.67;32.43;;;;;;;-2.65;78.35;99636.06;1709891;81;21113;-50
2022/01/26 01:43:34;;;;;;;66.77;32.57;;;;;;;-2.64;78.21;99639.14;1710492;81;21080;-49
2022/01/26 01:46:01;;;;;;;68.27;32.70;;;;;;;-2.65;78.21;99626.41;1714454;81;21073;-51
2022/01/26 01:48:30;;;;;;;64.97;33.67;;;;;;;-2.65;78.20;99620.26;1708003;81;22025;-50
2022/01/26 01:53:00;;;;;;;70.10;31.20;;;;;;;-2.62;78.28;99609.27;1792255;78;26700;-49
2022/01/26 01:55:26;;;;;;;73.87;33.20;;;;;;;-2.64;78.32;99615.44;1762639;79;21097;-52
2022/01/26 01:57:52;;;;;;;69.47;33.67;;;;;;;-2.66;78.24;99612.79;1739858;80;21024;-52
2022/01/26 02:00:18;;;;;;;68.37;33.70;;;;;;;-2.65;78.24;99617.19;1739795;80;21683;-49
2022/01/26 02:02:45;;;;;;;70.07;33.37;;;;;;;-2.63;78.33;99613.21;1742406;80;21492;-49
2022/01/26 02:05:11;;;;;;;71.43;33.30;;;;;;;-2.63;78.29;99614.53;1744815;80;20964;-52
2022/01/26 02:07:38;;;;;;;71.70;33.90;;;;;;;-2.63;78.39;99608.82;1745019;80;20910;-50
2022/01/26 02:10:05;;;;;;;66.20;32.97;;;;;;;-2.62;78.43;99617.17;1741502;80;20980;-49
2022/01/26 02:12:34;;;;;;;73.17;34.27;;;;;;;-2.61;78.40;99612.34;1743657;80;20961;-49
2022/01/26 02:15:09;;;;;;;64.43;33.17;;;;;;;-2.61;78.39;99612.34;1747208;80;20932;-52
2022/01/26 02:20:25;;;;;;;66.23;32.57;;;;;;;-2.61;78.45;99609.71;1750215;80;20942;-52
2022/01/26 02:55:46;;;;;;;63.17;32.47;;;;;;;-2.49;79.00;99607.11;1704658;82;21104;-51
2022/01/26 02:58:04;;;;;;;69.45;32.13;;;;;;;-2.46;79.08;99603.14;1693323;82;21046;-51
2022/01/26 03:00:26;;;;;;;68.60;32.80;;;;;;;-2.45;79.05;99601.39;1704996;82;20947;-51
2022/01/26 03:02:54;;;;;;;60.40;30.67;;;;;;;-2.44;79.20;99600.52;1708940;81;21124;-51
2022/01/26 03:05:20;;;;;;;66.33;32.23;;;;;;;-2.43;79.22;99605.80;1709508;82;21120;-50
2022/01/26 03:08:00;;;;;;;63.37;32.57;;;;;;;-2.42;79.33;99600.97;1703882;82;21503;-50
2022/01/26 03:13:02;;;;;;;56.10;30.03;;;;;;;-2.40;79.41;99600.98;1705927;82;21483;-51
2022/01/26 03:15:27;;;;;;;72.67;31.93;;;;;;;-2.41;79.45;99604.05;1671703;83;22698;-51
2022/01/26 03:20:18;;;;;;;60.03;29.77;;;;;;;-2.35;79.60;99602.73;1707498;81;21550;-51
2022/01/26 03:28:21;;;;;;;54.90;28.42;;;;;;;-2.29;79.83;99609.31;1706312;81;21660;-50
2022/01/26 03:35:48;;;;;;;54.43;26.73;;;;;;;-2.24;80.04;99614.61;1704084;81;21425;-50
2022/01/26 03:38:47;;;;;;;62.48;28.67;;;;;;;-2.22;80.06;99614.62;1704535;82;21100;-51
2022/01/26 03:40:48;;;;;;;52.98;27.45;;;;;;;-2.22;80.14;99611.98;1693303;82;23507;-50
2022/01/26 03:43:14;;;;;;;57.60;26.83;;;;;;;-2.17;80.26;99618.13;1712666;82;20938;-51
2022/01/26 03:45:41;;;;;;;54.33;26.93;;;;;;;-2.15;80.23;99619.01;1708520;81;20946;-50
2022/01/26 03:48:07;;;;;;;61.90;28.73;;;;;;;-2.11;80.36;99616.80;1706367;82;21160;-51
2022/01/26 03:50:33;;;;;;;56.77;27.33;;;;;;;-2.08;80.33;99616.81;1704761;81;21119;-50
2022/01/26 03:52:59;;;;;;;54.67;27.30;;;;;;;-2.07;80.36;99618.13;1720198;80;21831;-50
2022/01/26 03:55:26;;;;;;;57.07;29.10;;;;;;;-2.03;80.43;99616.36;1723607;80;21076;-51
2022/01/26 03:57:52;;;;;;;55.10;27.27;;;;;;;-2.00;80.43;99619.00;1726616;80;21142;-51
2022/01/26 04:00:18;;;;;;;53.37;25.80;;;;;;;-1.99;80.45;99622.09;1729163;81;21075;-50
2022/01/26 04:02:45;;;;;;;53.00;27.70;;;;;;;-1.97;80.52;99621.66;1727757;80;21294;-50
2022/01/26 04:05:12;;;;;;;58.27;27.10;;;;;;;-1.96;80.59;99619.46;1732040;80;21287;-50
2022/01/26 04:07:41;;;;;;;54.73;26.33;;;;;;;-1.95;80.63;99614.16;1726405;80;21012;-51
2022/01/26 04:10:20;;;;;;;53.97;27.53;;;;;;;-1.90;80.64;99615.49;1733171;80;21457;-50
2022/01/26 04:12:37;;;;;;;52.57;27.67;;;;;;;-1.86;80.67;99623.83;1730192;80;21076;-51
2022/01/26 04:15:14;;;;;;;55.50;27.30;;;;;;;-1.84;80.76;99621.20;1728355;80;21060;-51
2022/01/26 04:17:33;;;;;;;56.10;26.77;;;;;;;-1.82;80.69;99618.13;1691532;82;22410;-50
2022/01/26 04:20:00;;;;;;;51.23;26.53;;;;;;;-1.82;80.69;99616.36;1731668;80;21676;-51
2022/01/26 04:22:36;;;;;;;53.87;26.93;;;;;;;-1.81;80.69;99622.09;1722982;80;21335;-50
2022/01/26 04:24:56;;;;;;;61.00;30.53;;;;;;;-1.81;80.69;99620.77;1727525;80;21069;-50
2022/01/26 04:29:52;;;;;;;50.60;24.77;;;;;;;-1.82;80.73;99624.72;1723234;80;21463;-51
2022/01/26 04:32:18;;;;;;;50.77;25.57;;;;;;;-1.85;80.81;99620.75;1730075;80;22402;-50
2022/01/26 04:34:47;;;;;;;58.97;27.33;;;;;;;-1.85;80.97;99615.03;1724212;80;21133;-51
2022/01/26 04:39:47;;;;;;;55.03;27.30;;;;;;;-1.81;81.08;99618.56;1727069;80;21131;-50
2022/01/26 04:42:14;;;;;;;53.67;25.60;;;;;;;-1.81;81.05;99618.56;1724962;80;21486;-50
2022/01/26 04:44:47;;;;;;;53.90;28.57;;;;;;;-1.83;81.15;99614.60;1731256;80;20879;-50
2022/01/26 04:47:08;;;;;;;51.73;26.57;;;;;;;-1.79;81.22;99620.33;1733422;80;20966;-50
2022/01/26 04:49:35;;;;;;;53.17;24.70;;;;;;;-1.79;81.17;99621.65;1728550;80;22422;-50
2022/01/26 04:52:02;;;;;;;49.17;26.60;;;;;;;-1.80;81.22;99621.20;1727710;80;21858;-50
2022/01/26 04:54:29;;;;;;;56.27;28.00;;;;;;;-1.77;81.28;99621.19;1741532;80;21185;-50
2022/01/26 04:56:56;;;;;;;53.27;27.30;;;;;;;-1.76;81.26;99624.70;1740950;80;21121;-50
2022/01/26 04:59:22;;;;;;;60.73;29.63;;;;;;;-1.78;81.23;99628.66;1741329;80;21361;-50
2022/01/26 05:01:48;;;;;;;59.80;28.27;;;;;;;-1.79;81.33;99630.89;1738973;80;21870;-51
2022/01/26 05:04:14;;;;;;;61.33;28.43;;;;;;;-1.80;81.34;99633.52;1739562;80;21597;-50
2022/01/26 05:06:41;;;;;;;54.37;27.33;;;;;;;-1.80;81.47;99631.77;1738460;80;21522;-51
2022/01/26 05:09:07;;;;;;;56.80;27.40;;;;;;;-1.81;81.50;99628.68;1741261;80;21060;-51
2022/01/26 05:11:38;;;;;;;52.67;26.47;;;;;;;-1.84;81.75;99639.22;1738974;80;21098;-50
2022/01/26 05:14:03;;;;;;;50.13;25.73;;;;;;;-1.85;81.84;99640.09;1748716;80;20981;-50
2022/01/26 05:16:30;;;;;;;55.23;25.57;;;;;;;-1.84;81.93;99636.59;1745148;80;21901;-50
2022/01/26 05:18:56;;;;;;;56.60;26.60;;;;;;;-1.84;82.08;99641.86;1744500;80;21415;-50
2022/01/26 05:21:24;;;;;;;54.60;25.73;;;;;;;-1.87;82.10;99640.53;1747734;80;20942;-50
2022/01/26 05:23:50;;;;;;;56.13;27.60;;;;;;;-1.87;82.32;99642.33;1743810;80;20972;-51
2022/01/26 05:26:16;;;;;;;51.53;26.17;;;;;;;-1.89;82.32;99646.71;1745652;80;20862;-51
2022/01/26 05:28:43;;;;;;;54.50;25.13;;;;;;;-1.89;82.32;99646.27;1746852;80;20972;-51
2022/01/26 05:31:09;;;;;;;55.13;27.57;;;;;;;-1.89;82.35;99642.75;1749126;80;21404;-52
2022/01/26 05:33:36;;;;;;;59.07;28.30;;;;;;;-1.92;82.55;99648.90;1744491;80;20969;-49
2022/01/26 05:36:02;;;;;;;51.00;25.47;;;;;;;-1.94;82.51;99652.85;1747799;80;20970;-52
2022/01/26 05:38:29;;;;;;;50.50;24.93;;;;;;;-1.97;82.56;99651.99;1748576;80;20965;-49
2022/01/26 05:40:58;;;;;;;59.03;27.07;;;;;;;-2.00;82.63;99659.45;1747458;80;20930;-49
2022/01/26 05:43:24;;;;;;;56.27;26.60;;;;;;;-2.00;82.75;99663.84;1748181;80;21832;-49
2022/01/26 05:45:54;;;;;;;55.67;26.33;;;;;;;-2.03;82.75;99660.76;1746776;80;22120;-49
2022/01/26 05:48:18;;;;;;;58.23;26.63;;;;;;;-2.02;82.81;99664.27;1704468;82;21065;-50
2022/01/26 05:50:55;;;;;;;56.20;25.97;;;;;;;-2.03;82.81;99665.15;1708796;82;21042;-49
2022/01/26 05:53:23;;;;;;;57.35;27.62;;;;;;;-2.03;82.84;99668.67;1671464;84;27107;-51
2022/01/26 05:55:50;;;;;;;59.27;27.90;;;;;;;-2.02;82.83;99666.91;1685864;83;23289;-51
2022/01/26 05:58:17;;;;;;;59.33;26.43;;;;;;;-1.99;82.87;99668.25;1683322;83;21071;-54
2022/01/26 06:00:43;;;;;;;60.73;26.27;;;;;;;-1.99;82.76;99666.49;1683191;83;21153;-51
2022/01/26 06:03:10;;;;;;;56.57;27.93;;;;;;;-1.98;82.82;99664.30;1705584;82;21099;-51
2022/01/26 06:05:37;;;;;;;50.17;25.23;;;;;;;-1.97;82.78;99669.14;1684422;83;21121;-51
2022/01/26 06:08:04;;;;;;;56.33;28.73;;;;;;;-1.98;82.70;99676.17;1687289;83;21144;-50
2022/01/26 06:10:30;;;;;;;54.03;26.20;;;;;;;-1.98;82.72;99677.48;1705576;82;21093;-51
2022/01/26 06:12:57;;;;;;;57.83;27.47;;;;;;;-1.97;82.75;99681.01;1674567;83;21120;-50
2022/01/26 06:15:23;;;;;;;59.03;28.30;;;;;;;-1.99;82.66;99683.64;1680270;83;21056;-51
2022/01/26 06:17:50;;;;;;;56.37;28.30;;;;;;;-2.01;82.66;99679.23;1683163;83;21503;-51
2022/01/26 06:20:16;;;;;;;57.70;26.67;;;;;;;-2.01;82.72;99685.83;1693302;82;21693;-50
2022/01/26 06:22:42;;;;;;;53.73;26.77;;;;;;;-2.02;82.67;99685.38;1702630;82;21530;-50
2022/01/26 06:25:09;;;;;;;54.50;27.03;;;;;;;-2.07;82.62;99688.02;1702588;83;21836;-50
2022/01/26 06:27:37;;;;;;;44.47;24.23;;;;;;;-2.12;82.64;99688.44;1690913;82;21065;-50
2022/01/26 06:30:05;;;;;;;48.17;24.17;;;;;;;-2.11;82.73;99685.36;1708949;82;21527;-50
2022/01/26 06:32:34;;;;;;;50.13;23.17;;;;;;;-2.11;82.70;99690.20;1707037;82;21408;-50
2022/01/26 06:35:00;;;;;;;46.27;23.37;;;;;;;-2.10;82.69;99694.60;1686432;83;21116;-50
2022/01/26 06:37:27;;;;;;;47.20;23.67;;;;;;;-2.11;82.51;99699.43;1702881;82;21210;-49
2022/01/26 06:39:53;;;;;;;48.37;22.40;;;;;;;-2.12;82.58;99699.42;1666321;85;21067;-49
2022/01/26 06:42:25;;;;;;;47.00;23.20;;;;;;;-2.11;82.41;99701.19;1674874;85;21118;-50
2022/01/26 06:44:55;;;;;;;49.97;23.57;;;;;;;-2.17;82.33;99706.46;1670585;84;21311;-50
2022/01/26 06:48:27;;;;;;;46.40;22.67;;;;;;;-2.23;82.44;99701.19;1671154;84;21519;-49
2022/01/26 06:49:44;;;;;;;44.27;23.23;;;;;;;-2.26;82.55;99705.12;1642911;85;21042;-50
2022/01/26 06:52:10;;;;;;;48.13;24.30;;;;;;;-2.25;82.57;99712.16;1674261;83;21070;-50
2022/01/26 06:54:37;;;;;;;52.90;24.43;;;;;;;-2.23;82.61;99718.32;1660592;85;21070;-49
2022/01/26 06:57:04;;;;;;;51.07;25.67;;;;;;;-2.22;82.59;99724.92;1678235;83;22181;-49
2022/01/26 06:59:31;;;;;;;48.37;25.40;;;;;;;-2.19;82.60;99733.25;1735101;80;21046;-50
2022/01/26 07:01:57;;;;;;;48.90;23.07;;;;;;;-2.17;82.61;99731.52;1736785;80;21286;-50
2022/01/26 07:04:23;;;;;;;48.60;24.47;;;;;;;-2.17;82.51;99727.13;1737449;80;21066;-51
2022/01/26 07:06:50;;;;;;;50.70;23.83;;;;;;;-2.15;82.49;99729.77;1745277;80;21487;-51
2022/01/26 07:09:16;;;;;;;48.50;23.23;;;;;;;-2.17;82.38;99729.75;1737153;80;21537;-49
2022/01/26 07:11:45;;;;;;;48.20;23.33;;;;;;;-2.21;82.47;99729.30;1735851;80;21817;-50
2022/01/26 07:14:21;;;;;;;51.33;25.10;;;;;;;-2.20;82.44;99734.13;1738913;80;21429;-50
2022/01/26 07:22:10;;;;;;;43.45;22.10;;;;;;;-2.22;82.51;99750.41;1737936;80;21053;-51
2022/01/26 07:24:36;;;;;;;52.23;24.70;;;;;;;-2.24;82.60;99756.99;1737057;80;21115;-51
2022/01/26 07:27:04;;;;;;;51.70;24.33;;;;;;;-2.24;82.55;99754.35;1738009;80;21036;-51
2022/01/26 07:29:32;;;;;;;42.87;22.37;;;;;;;-2.23;82.61;99756.12;1736563;80;21109;-51
2022/01/26 07:31:59;;;;;;;43.57;21.70;;;;;;;-2.21;82.56;99762.72;1739888;80;21104;-52
2022/01/26 07:34:25;;;;;;;46.77;23.67;;;;;;;-2.22;82.47;99763.16;1737881;80;21103;-51
2022/01/26 07:36:54;;;;;;;47.60;22.00;;;;;;;-2.22;82.41;99767.11;1740687;80;22424;-50
2022/01/26 07:39:31;;;;;;;47.17;22.20;;;;;;;-2.22;82.42;99769.75;1700307;82;21061;-51
2022/01/26 07:41:48;;;;;;;42.63;21.47;;;;;;;-2.22;82.39;99776.78;1734517;80;21140;-51
2022/01/26 07:44:15;;;;;;;43.13;21.00;;;;;;;-2.21;82.33;99770.16;1737003;80;21134;-52
2022/01/26 07:46:41;;;;;;;41.40;20.73;;;;;;;-2.20;82.18;99791.70;1735418;80;21143;-52
2022/01/26 07:49:08;;;;;;;38.10;19.03;;;;;;;-2.20;82.05;99781.16;1735205;80;21511;-52
2022/01/26 07:51:34;;;;;;;41.40;19.50;;;;;;;-2.21;81.83;99780.71;1736360;80;21531;-50
2022/01/26 07:54:00;;;;;;;43.83;20.90;;;;;;;-2.18;81.89;99786.45;1731113;80;21587;-51
2022/01/26 07:56:28;;;;;;;42.43;20.10;;;;;;;-2.17;81.84;99789.53;1735698;80;21084;-52
2022/01/26 07:58:56;;;;;;;40.43;19.50;;;;;;;-2.16;81.71;99786.90;1723697;80;22519;-51
2022/01/26 08:01:23;;;;;;;38.40;20.57;;;;;;;-2.15;81.79;99782.08;1730974;80;21484;-50
2022/01/26 08:03:49;;;;;;;42.10;20.73;;;;;;;-2.13;81.59;99782.08;1729274;80;21495;-51
2022/01/26 08:06:18;;;;;;;39.60;20.07;;;;;;;-2.10;81.66;99781.63;1731497;80;21673;-51
2022/01/26 08:08:45;;;;;;;43.37;20.60;;;;;;;-2.05;81.78;99781.23;1730793;80;21085;-51
2022/01/26 08:11:11;;;;;;;44.77;20.63;;;;;;;-1.96;81.54;99793.56;1695348;82;21101;-51
2022/01/26 08:13:38;;;;;;;37.57;19.10;;;;;;;-1.93;81.31;99788.27;1727118;80;21421;-51
2022/01/26 08:16:04;;;;;;;36.37;18.30;;;;;;;-1.89;81.22;99791.81;1724973;80;21637;-51
2022/01/26 08:18:31;;;;;;;34.80;18.30;;;;;;;-1.89;80.99;99799.29;1731972;80;21125;-51
2022/01/26 08:21:06;;;;;;;35.63;18.20;;;;;;;-1.88;80.99;99795.78;1735976;80;21086;-51
2022/01/26 08:23:26;;;;;;;36.03;17.87;;;;;;;-1.83;80.87;99801.94;1724861;80;21665;-51
2022/01/26 08:25:52;;;;;;;36.27;17.03;;;;;;;-1.79;80.48;99805.47;1736898;80;21535;-51
2022/01/26 08:28:27;;;;;;;36.37;16.37;;;;;;;-1.78;80.40;99810.73;1731960;80;21074;-50
2022/01/26 08:30:46;;;;;;;31.07;14.97;;;;;;;-1.74;80.16;99801.95;1724480;80;21041;-50
2022/01/26 08:33:12;;;;;;;32.43;15.50;;;;;;;-1.69;80.11;99806.78;1731869;80;21053;-51
2022/01/26 08:35:41;;;;;;;32.97;16.43;;;;;;;-1.65;80.02;99808.57;1728770;80;21142;-51
2022/01/26 08:38:07;;;;;;;28.93;13.83;;;;;;;-1.62;79.66;99803.74;1741141;80;21064;-51
2022/01/26 08:40:34;;;;;;;29.93;14.47;;;;;;;-1.61;79.36;99810.31;1730065;80;21036;-50
2022/01/26 08:43:01;;;;;;;24.43;13.53;;;;;;;-1.59;79.05;99812.53;1734103;80;21013;-50
2022/01/26 08:45:27;;;;;;;22.67;12.00;;;;;;;-1.57;78.84;99809.89;1728353;80;21069;-51
2022/01/26 08:47:54;;;;;;;24.83;13.63;;;;;;;-1.54;78.51;99814.75;1727717;80;21198;-51
2022/01/26 08:50:20;;;;;;;29.60;13.83;;;;;;;-1.49;78.53;99810.78;1732126;80;21115;-50
2022/01/26 08:52:47;;;;;;;25.77;12.23;;;;;;;-1.44;78.31;99813.41;1732214;80;21067;-50
2022/01/26 08:55:14;;;;;;;22.93;10.90;;;;;;;-1.41;77.95;99810.78;1733029;80;21406;-51
2022/01/26 08:57:40;;;;;;;23.87;12.07;;;;;;;-1.39;77.82;99813.88;1727796;80;21855;-51
2022/01/26 09:00:08;;;;;;;21.20;10.67;;;;;;;-1.37;77.40;99809.92;1730052;80;21542;-52
2022/01/26 09:02:35;;;;;;;22.30;10.67;;;;;;;-1.36;77.38;99808.58;1738385;80;21043;-51
2022/01/26 09:05:04;;;;;;;18.43;10.53;;;;;;;-1.33;77.38;99801.98;1730382;80;21123;-50
2022/01/26 09:07:31;;;;;;;22.97;11.10;;;;;;;-1.26;77.29;99798.46;1727620;80;22852;-50
2022/01/26 09:10:00;;;;;;;16.57;9.43;;;;;;;-1.19;77.15;99792.73;1726176;80;21093;-51
2022/01/26 09:12:26;;;;;;;21.03;9.83;;;;;;;-1.12;76.54;99797.16;1738564;80;23257;-51
2022/01/26 09:14:53;;;;;;;20.07;9.40;;;;;;;-1.09;76.15;99796.25;1724168;80;21178;-51
2022/01/26 09:17:20;;;;;;;19.60;9.60;;;;;;;-1.08;76.09;99798.89;1728445;80;21382;-51
2022/01/26 09:19:48;;;;;;;19.07;9.33;;;;;;;-1.03;75.88;99806.84;1729241;80;21498;-51
2022/01/26 09:22:16;;;;;;;18.20;8.57;;;;;;;-1.00;75.43;99814.30;1723230;80;21060;-50
2022/01/26 09:24:43;;;;;;;18.80;8.77;;;;;;;-0.98;75.29;99812.98;1731778;80;21142;-51
2022/01/26 09:27:14;;;;;;;18.20;8.17;;;;;;;-0.98;75.31;99812.55;1736542;80;21085;-51
2022/01/26 09:29:44;;;;;;;14.13;7.73;;;;;;;-0.94;75.32;99803.75;1677019;83;21407;-51
2022/01/26 09:32:11;;;;;;;19.43;8.47;;;;;;;-0.89;75.12;99812.53;1735366;80;21121;-51
2022/01/26 09:34:39;;;;;;;14.83;8.17;;;;;;;-0.87;74.89;99811.22;1731766;80;22564;-50
2022/01/26 09:37:10;;;;;;;20.43;9.20;;;;;;;-0.88;74.59;99807.69;1737443;80;21114;-52
2022/01/26 09:39:39;;;;;;;20.87;10.53;;;;;;;-0.88;74.65;99813.41;1726809;80;21150;-52
2022/01/26 09:42:06;;;;;;;19.40;10.20;;;;;;;-0.90;74.66;99808.56;1731917;80;21090;-52
2022/01/26 09:44:33;;;;;;;21.67;10.00;;;;;;;-0.91;74.88;99808.13;1734025;80;21167;-52
2022/01/26 09:46:59;;;;;;;24.33;9.80;;;;;;;-0.91;74.80;99815.61;1736295;80;21108;-52
2022/01/26 09:49:34;;;;;;;21.90;9.13;;;;;;;-0.92;74.79;99816.49;1731823;80;21092;-51
2022/01/26 09:52:01;;;;;;;21.53;11.03;;;;;;;-0.93;74.66;99820.45;1729729;80;21601;-51
2022/01/26 09:54:30;;;;;;;18.97;9.27;;;;;;;-0.96;74.80;99813.43;1742643;80;20906;-51
2022/01/26 09:57:00;;;;;;;17.03;8.17;;;;;;;-0.96;74.92;99826.64;1701990;82;21866;-50
2022/01/26 09:59:24;;;;;;;16.47;8.07;;;;;;;-0.99;74.83;99821.34;1679116;83;20927;-51
2022/01/26 10:01:50;;;;;;;17.03;8.73;;;;;;;-1.04;74.88;99821.80;1697584;84;20980;-50
2022/01/26 10:04:21;;;;;;;21.10;9.40;;;;;;;-1.07;75.07;99820.91;1730138;80;20890;-49
2022/01/26 10:07:09;;;;;;;18.40;9.17;;;;;;;-1.08;75.31;99818.70;1734512;80;21489;-49
2022/01/26 10:17:42;;;;;;;22.98;8.88;;;;;;;-0.97;75.49;99812.11;1666702;84;25118;-50
2022/01/26 10:20:15;;;;;;;26.33;10.60;;;;;;;-0.94;75.56;99818.28;1736187;80;21479;-50
2022/01/26 10:25:17;;;;;;;18.43;8.17;;;;;;;-0.93;75.24;99820.02;1826272;76;26692;-52
2022/01/26 10:27:48;;;;;;;13.50;6.40;;;;;;;-0.97;75.30;99817.39;1719765;81;20972;-51
2022/01/26 10:30:16;;;;;;;20.47;8.30;;;;;;;-1.01;75.10;99816.50;1744289;80;22269;-52
2022/01/26 10:32:45;;;;;;;14.57;7.67;;;;;;;-1.01;75.21;99812.53;1745608;80;21116;-52
2022/01/26 10:35:13;;;;;;;16.10;7.57;;;;;;;-1.02;75.22;99820.02;1746989;80;21394;-52
2022/01/26 10:37:54;;;;;;;19.10;9.07;;;;;;;-1.03;75.04;99810.80;1746927;80;20944;-52
2022/01/26 10:40:25;;;;;;;16.00;7.60;;;;;;;-1.06;75.05;99812.99;1744780;80;21052;-52
2022/01/26 10:43:07;;;;;;;17.80;9.13;;;;;;;-1.06;75.16;99811.67;1750351;80;21452;-51
2022/01/26 10:48:42;;;;;;;32.73;14.93;;;;;;;-0.98;74.88;99814.30;1727959;80;21051;-51
2022/01/26 10:53:50;;;;;;;17.20;7.67;;;;;;;-0.91;74.51;99814.73;1752832;80;21070;-50
2022/01/26 10:56:15;;;;;;;18.17;8.87;;;;;;;-0.88;73.96;99809.45;1751803;80;21640;-50
2022/01/26 10:58:41;;;;;;;14.10;7.53;;;;;;;-0.84;73.69;99817.36;1733461;81;21552;-50
2022/01/26 11:01:07;;;;;;;25.60;12.87;;;;;;;-0.80;73.83;99821.77;1733267;81;21068;-50
2022/01/26 11:03:34;;;;;;;11.07;6.43;;;;;;;-0.73;73.69;99813.82;1733136;80;21483;-51
2022/01/26 11:06:03;;;;;;;11.33;5.50;;;;;;;-0.68;72.88;99818.68;1735405;81;21571;-50
2022/01/26 11:08:30;;;;;;;12.50;7.00;;;;;;;-0.65;72.26;99822.17;1741327;81;22950;-50
2022/01/26 11:10:57;;;;;;;13.87;6.77;;;;;;;-0.68;71.97;99818.68;1741510;80;20950;-51
2022/01/26 11:13:28;;;;;;;9.37;5.90;;;;;;;-0.72;71.75;99819.11;1740573;80;20929;-50
2022/01/26 11:16:13;;;;;;;8.53;3.87;;;;;;;-0.75;71.54;99816.46;1737332;80;20958;-51
2022/01/26 11:18:52;;;;;;;10.70;4.93;;;;;;;-0.76;71.11;99820.86;1738171;80;21255;-51
2022/01/26 11:21:34;;;;;;;8.07;2.97;;;;;;;-0.76;70.83;99812.94;1734192;80;21061;-50
2022/01/26 11:24:23;;;;;;;7.87;4.03;;;;;;;-0.76;70.67;99814.70;1735013;81;20946;-50
2022/01/26 11:27:04;;;;;;;22.80;10.47;;;;;;;-0.73;70.56;99819.11;1736047;80;20927;-50
2022/01/26 11:29:35;;;;;;;15.63;7.07;;;;;;;-0.73;70.23;99816.47;1732953;80;20876;-50
2022/01/26 11:32:07;;;;;;;7.83;3.27;;;;;;;-0.71;70.00;99814.70;1735424;80;20901;-50
2022/01/26 11:34:34;;;;;;;6.80;2.97;;;;;;;-0.70;68.21;99841.14;1735219;81;22101;-51
2022/01/26 11:37:02;;;;;;;8.50;3.47;;;;;;;-0.72;68.62;99824.40;1735198;81;20965;-50
2022/01/26 11:45:04;;;;;;;7.00;2.87;;;;;;;-0.68;68.62;99825.29;1737109;80;21610;-50
2022/01/26 11:45:13;;;;;;;4.10;2.00;;;;;;;-0.69;67.79;99818.23;1733706;80;21471;-50
2022/01/26 11:47:44;;;;;;;6.37;2.43;;;;;;;-0.70;68.00;99816.47;1731339;81;21787;-51
2022/01/26 11:50:17;;;;;;;5.77;2.40;;;;;;;-0.73;67.69;99813.38;1728687;81;21478;-51
2022/01/26 11:52:59;;;;;;;5.53;2.00;;;;;;;-0.75;67.48;99805.89;1729100;81;21111;-52
2022/01/26 11:55:40;;;;;;;4.80;2.13;;;;;;;-0.74;67.79;99806.33;1727600;81;21073;-51
2022/01/26 11:58:30;;;;;;;8.90;2.67;;;;;;;-0.73;67.56;99804.57;1726769;81;21586;-50
2022/01/26 12:01:28;;;;;;;7.53;3.13;;;;;;;-0.73;67.71;99804.13;1732317;81;21238;-50
2022/01/26 12:04:00;;;;;;;7.53;2.67;;;;;;;-0.71;67.73;99802.81;1732855;81;21526;-49
2022/01/26 12:06:36;;;;;;;8.57;2.70;;;;;;;-0.72;67.30;99808.54;1739024;80;21104;-50
2022/01/26 12:09:01;;;;;;;;;;;;;;;-0.73;65.50;99809.86;1725760;81;20945;-51
2022/01/26 12:11:30;;;;;;;5.43;1.60;;;;;;;-0.77;64.74;99816.94;1724098;81;20151;-50
2022/01/26 12:14:03;;;;;;;11.40;5.30;;;;;;;-0.84;65.01;99816.03;1722652;81;22671;-49
2022/01/26 12:16:39;;;;;;;8.73;3.17;;;;;;;-0.86;64.48;99822.23;1721244;81;21480;-51
2022/01/26 12:38:30;;;;;;;4.60;2.10;;;;;;;-0.79;62.53;99839.39;1728634;81;21141;-50
2022/01/26 12:43:45;;;;;;;3.63;0.80;;;;;;;-0.73;61.09;99831.89;1733130;81;21603;-51
2022/01/26 12:46:15;;;;;;;2.70;0.87;;;;;;;-0.76;60.80;99840.69;1732135;81;21055;-50
2022/01/26 12:48:49;;;;;;;2.40;0.70;;;;;;;-0.76;60.49;99842.02;1730758;81;21049;-50
2022/01/26 12:51:16;;;;;;;2.52;0.82;;;;;;;-0.76;59.81;99838.05;1707049;81;21084;-50
2022/01/26 12:53:43;;;;;;;4.80;1.43;;;;;;;-0.82;60.08;99844.67;1726702;81;21132;-50
2022/01/26 12:56:13;;;;;;;2.60;0.93;;;;;;;-0.83;60.24;99849.52;1725096;80;21147;-50
2022/01/26 12:58:41;;;;;;;3.30;1.00;;;;;;;-0.84;60.12;99847.75;1727982;81;21070;-49
2022/01/26 13:01:19;;;;;;;1.77;0.80;;;;;;;-0.85;60.33;99849.95;1732678;81;21001;-50
2022/01/26 13:03:48;;;;;;;4.20;0.97;;;;;;;-0.83;60.70;99852.16;1708230;82;22198;-50
2022/01/26 13:06:25;;;;;;;2.63;1.30;;;;;;;-0.80;60.76;99847.32;1708212;82;21743;-51
2022/01/26 13:08:55;;;;;;;3.93;1.00;;;;;;;-0.82;59.79;99849.08;1744282;81;21044;-50
2022/01/26 13:11:30;;;;;;;3.67;0.90;;;;;;;-0.90;60.05;99845.12;1720300;81;21081;-50
2022/01/26 13:14:16;;;;;;;2.30;1.10;;;;;;;-0.93;60.23;99841.15;1724273;81;21541;-51
2022/01/26 13:17:06;;;;;;;2.93;1.10;;;;;;;-0.97;60.44;99844.69;1724102;81;21126;-50
2022/01/26 13:19:51;;;;;;;2.00;1.03;;;;;;;-1.01;60.32;99843.36;1710785;81;21617;-50
2022/01/26 13:27:40;;;;;;;4.77;2.20;;;;;;;-1.08;61.24;99849.09;1733857;81;21091;-51
2022/01/26 13:35:43;;;;;;;5.53;1.90;;;;;;;-1.12;61.97;99863.20;1729544;81;20930;-51
2022/01/26 13:51:24;;;;;;;4.87;1.40;;;;;;;-1.14;63.21;99855.70;1736451;80;21426;-50
2022/01/26 13:53:55;;;;;;;5.93;1.50;;;;;;;-1.14;63.30;99866.27;1735299;81;20983;-51
2022/01/26 13:56:32;;;;;;;9.53;4.63;;;;;;;-1.16;63.37;99862.30;1722005;81;21069;-51
2022/01/26 13:58:58;;;;;;;5.73;2.30;;;;;;;-1.15;63.43;99860.10;1732896;80;22941;-51
2022/01/26 14:01:19;;;;;;;7.03;2.97;;;;;;;-1.14;63.12;99868.91;1734672;80;21159;-51